sensor_id;sensor_type;location;lat;lon;timestamp;P1;durP1;ratioP1;P2;durP2;ratioP2
72373;SDS011;60349;64.132;-21.820;2023-02-20T00:01:01;20.35;;;9.23;;
72373;SDS011;60349;64.132;-21.820;2023-02-20T00:03:27;22.40;;;10.35;;
72373;SDS011;60349;64.132;-21.820;2023-02-20T00:05:55;19.30;;;8.95;;
72373;SDS011;60349;64.132;-21.820;2023-02-20T00:08:21;20.30;;;8.30;;
72373;SDS011;60349;64.132;-21.820;2023-02-20T00:10:47;24.30;;;9.48;;
72373;SDS011;60349;64.132;-21.820;2023-02-20T00:13:14;21.70;;;8.70;;
72373;SDS011;60349;64.132;-21.820;2023-02-20T00:15:40;27.80;;;10.18;;
72373;SDS011;60349;64.132;-21.820;2023-02-20T00:18:06;40.83;;;18.23;;
72373;SDS011;60349;64.132;-21.820;2023-02-20T00:20:32;34.00;;;14.73;;
72373;SDS011;60349;64.132;-21.820;2023-02-20T00:23:00;33.28;;;14.77;;
72373;SDS011;60349;64.132;-21.820;2023-02-20T00:25:26;30.23;;;16.45;;
72373;SDS011;60349;64.132;-21.820;2023-02-20T00:27:52;30.95;;;15.25;;
72373;SDS011;60349;64.132;-21.820;2023-02-20T00:30:22;34.53;;;15.88;;
72373;SDS011;60349;64.132;-21.820;2023-02-20T00:32:49;29.02;;;12.55;;
72373;SDS011;60349;64.132;-21.820;2023-02-20T00:35:16;23.70;;;9.57;;
72373;SDS011;60349;64.132;-21.820;2023-02-20T00:37:42;22.27;;;8.73;;
72373;SDS011;60349;64.132;-21.820;2023-02-20T00:40:08;21.60;;;7.22;;
72373;SDS011;60349;64.132;-21.820;2023-02-20T00:42:35;18.67;;;6.07;;
72373;SDS011;60349;64.132;-21.820;2023-02-20T00:45:02;19.23;;;3.97;;
72373;SDS011;60349;64.132;-21.820;2023-02-20T00:47:28;14.70;;;4.35;;
72373;SDS011;60349;64.132;-21.820;2023-02-20T00:49:54;10.73;;;3.08;;
72373;SDS011;60349;64.132;-21.820;2023-02-20T00:52:20;8.73;;;2.38;;
72373;SDS011;60349;64.132;-21.820;2023-02-20T00:54:46;13.27;;;2.75;;
72373;SDS011;60349;64.132;-21.820;2023-02-20T00:57:12;8.57;;;1.52;;
72373;SDS011;60349;64.132;-21.820;2023-02-20T00:59:39;9.60;;;1.48;;
72373;SDS011;60349;64.132;-21.820;2023-02-20T01:02:05;6.47;;;0.63;;
72373;SDS011;60349;64.132;-21.820;2023-02-20T01:04:31;6.10;;;0.73;;
72373;SDS011;60349;64.132;-21.820;2023-02-20T01:06:57;8.27;;;0.70;;
72373;SDS011;60349;64.132;-21.820;2023-02-20T01:09:23;6.35;;;0.50;;
72373;SDS011;60349;64.132;-21.820;2023-02-20T01:11:52;7.32;;;1.27;;
72373;SDS011;60349;64.132;-21.820;2023-02-20T01:14:18;5.65;;;0.40;;
72373;SDS011;60349;64.132;-21.820;2023-02-20T01:16:45;5.43;;;1.13;;
72373;SDS011;60349;64.132;-21.820;2023-02-20T01:19:11;4.93;;;0.38;;
72373;SDS011;60349;64.132;-21.820;2023-02-20T01:21:37;4.78;;;0.32;;
72373;SDS011;60349;64.132;-21.820;2023-02-20T01:24:03;6.50;;;0.40;;
72373;SDS011;60349;64.132;-21.820;2023-02-20T01:26:29;4.55;;;0.57;;
72373;SDS011;60349;64.132;-21.820;2023-02-20T01:28:55;7.20;;;0.47;;
72373;SDS011;60349;64.132;-21.820;2023-02-20T01:31:22;6.80;;;0.30;;
72373;SDS011;60349;64.132;-21.820;2023-02-20T01:33:48;5.97;;;0.63;;
72373;SDS011;60349;64.132;-21.820;2023-02-20T01:36:14;6.43;;;0.50;;
72373;SDS011;60349;64.132;-21.820;2023-02-20T01:38:40;4.95;;;0.50;;
72373;SDS011;60349;64.132;-21.820;2023-02-20T01:41:10;5.40;;;0.40;;
72373;SDS011;60349;64.132;-21.820;2023-02-20T01:43:36;3.95;;;0.63;;
72373;SDS011;60349;64.132;-21.820;2023-02-20T01:48:47;5.95;;;0.25;;
72373;SDS011;60349;64.132;-21.820;2023-02-20T01:51:14;4.03;;;0.40;;
72373;SDS011;60349;64.132;-21.820;2023-02-20T01:53:41;5.70;;;0.20;;
72373;SDS011;60349;64.132;-21.820;2023-02-20T01:56:07;6.47;;;0.30;;
72373;SDS011;60349;64.132;-21.820;2023-02-20T01:58:35;3.72;;;0.25;;
72373;SDS011;60349;64.132;-21.820;2023-02-20T02:01:03;3.40;;;0.38;;
72373;SDS011;60349;64.132;-21.820;2023-02-20T02:03:31;3.50;;;0.90;;
72373;SDS011;60349;64.132;-21.820;2023-02-20T02:05:59;32.13;;;15.77;;
72373;SDS011;60349;64.132;-21.820;2023-02-20T02:08:26;37.08;;;15.88;;
72373;SDS011;60349;64.132;-21.820;2023-02-20T02:13:19;22.80;;;9.85;;
72373;SDS011;60349;64.132;-21.820;2023-02-20T02:15:45;19.75;;;8.13;;
72373;SDS011;60349;64.132;-21.820;2023-02-20T02:34:00;14.35;;;2.00;;
72373;SDS011;60349;64.132;-21.820;2023-02-20T02:39:08;6.18;;;0.98;;
72373;SDS011;60349;64.132;-21.820;2023-02-20T02:44:17;10.00;;;1.40;;
72373;SDS011;60349;64.132;-21.820;2023-02-20T02:49:28;6.80;;;0.77;;
72373;SDS011;60349;64.132;-21.820;2023-02-20T02:51:56;6.60;;;0.63;;
72373;SDS011;60349;64.132;-21.820;2023-02-20T02:54:24;7.65;;;0.45;;
72373;SDS011;60349;64.132;-21.820;2023-02-20T02:56:51;8.05;;;0.40;;
72373;SDS011;60349;64.132;-21.820;2023-02-20T02:59:28;5.07;;;0.40;;
72373;SDS011;60349;64.132;-21.820;2023-02-20T03:02:00;7.93;;;0.77;;
72373;SDS011;60349;64.132;-21.820;2023-02-20T03:04:28;5.93;;;0.30;;
72373;SDS011;60349;64.132;-21.820;2023-02-20T03:06:59;6.93;;;0.30;;
72373;SDS011;60349;64.132;-21.820;2023-02-20T03:09:29;4.60;;;0.40;;
72373;SDS011;60349;64.132;-21.820;2023-02-20T03:11:56;3.60;;;0.22;;
72373;SDS011;60349;64.132;-21.820;2023-02-20T03:14:25;5.38;;;0.50;;
72373;SDS011;60349;64.132;-21.820;2023-02-20T03:17:17;9.13;;;0.50;;
72373;SDS011;60349;64.132;-21.820;2023-02-20T03:19:47;5.32;;;0.47;;
72373;SDS011;60349;64.132;-21.820;2023-02-20T03:22:17;6.25;;;0.45;;
72373;SDS011;60349;64.132;-21.820;2023-02-20T03:24:44;5.45;;;0.40;;
72373;SDS011;60349;64.132;-21.820;2023-02-20T03:30:50;5.30;;;0.45;;
72373;SDS011;60349;64.132;-21.820;2023-02-20T03:35:53;3.75;;;0.20;;
72373;SDS011;60349;64.132;-21.820;2023-02-20T03:38:39;5.07;;;0.20;;
72373;SDS011;60349;64.132;-21.820;2023-02-20T03:44:09;5.90;;;0.63;;
72373;SDS011;60349;64.132;-21.820;2023-02-20T03:46:36;7.10;;;1.02;;
72373;SDS011;60349;64.132;-21.820;2023-02-20T03:49:05;8.52;;;0.43;;
72373;SDS011;60349;64.132;-21.820;2023-02-20T03:51:32;4.97;;;0.20;;
72373;SDS011;60349;64.132;-21.820;2023-02-20T03:53:58;5.65;;;0.40;;
72373;SDS011;60349;64.132;-21.820;2023-02-20T03:56:27;4.80;;;0.45;;
72373;SDS011;60349;64.132;-21.820;2023-02-20T03:58:57;6.95;;;0.55;;
72373;SDS011;60349;64.132;-21.820;2023-02-20T04:01:27;4.10;;;0.30;;
72373;SDS011;60349;64.132;-21.820;2023-02-20T04:03:53;6.63;;;0.30;;
72373;SDS011;60349;64.132;-21.820;2023-02-20T04:06:21;7.82;;;0.30;;
72373;SDS011;60349;64.132;-21.820;2023-02-20T04:08:57;3.95;;;0.28;;
72373;SDS011;60349;64.132;-21.820;2023-02-20T04:11:25;3.72;;;0.40;;
72373;SDS011;60349;64.132;-21.820;2023-02-20T04:13:54;6.15;;;0.20;;
72373;SDS011;60349;64.132;-21.820;2023-02-20T04:16:20;6.25;;;0.20;;
72373;SDS011;60349;64.132;-21.820;2023-02-20T04:18:46;6.75;;;0.38;;
72373;SDS011;60349;64.132;-21.820;2023-02-20T04:21:27;4.70;;;0.20;;
72373;SDS011;60349;64.132;-21.820;2023-02-20T04:24:01;5.13;;;0.70;;
72373;SDS011;60349;64.132;-21.820;2023-02-20T04:26:29;3.40;;;0.20;;
72373;SDS011;60349;64.132;-21.820;2023-02-20T04:28:55;3.20;;;0.20;;
72373;SDS011;60349;64.132;-21.820;2023-02-20T04:31:21;7.82;;;0.40;;
72373;SDS011;60349;64.132;-21.820;2023-02-20T04:33:48;6.28;;;0.20;;
72373;SDS011;60349;64.132;-21.820;2023-02-20T04:36:14;5.40;;;0.32;;
72373;SDS011;60349;64.132;-21.820;2023-02-20T04:38:40;8.70;;;0.20;;
72373;SDS011;60349;64.132;-21.820;2023-02-20T04:41:06;3.03;;;0.15;;
72373;SDS011;60349;64.132;-21.820;2023-02-20T04:43:32;3.78;;;0.22;;
72373;SDS011;60349;64.132;-21.820;2023-02-20T04:45:58;4.03;;;0.47;;
72373;SDS011;60349;64.132;-21.820;2023-02-20T04:48:25;8.55;;;0.40;;
72373;SDS011;60349;64.132;-21.820;2023-02-20T04:50:51;6.82;;;0.28;;
72373;SDS011;60349;64.132;-21.820;2023-02-20T04:53:17;8.38;;;0.52;;
72373;SDS011;60349;64.132;-21.820;2023-02-20T04:55:43;6.13;;;0.20;;
72373;SDS011;60349;64.132;-21.820;2023-02-20T04:58:10;4.18;;;0.15;;
72373;SDS011;60349;64.132;-21.820;2023-02-20T05:00:36;5.97;;;0.40;;
72373;SDS011;60349;64.132;-21.820;2023-02-20T05:03:02;5.45;;;0.25;;
72373;SDS011;60349;64.132;-21.820;2023-02-20T05:05:28;8.70;;;0.32;;
72373;SDS011;60349;64.132;-21.820;2023-02-20T05:07:55;5.07;;;0.20;;
72373;SDS011;60349;64.132;-21.820;2023-02-20T05:10:22;4.70;;;0.30;;
72373;SDS011;60349;64.132;-21.820;2023-02-20T05:12:49;4.75;;;0.20;;
72373;SDS011;60349;64.132;-21.820;2023-02-20T05:15:16;3.50;;;0.38;;
72373;SDS011;60349;64.132;-21.820;2023-02-20T05:17:42;5.25;;;0.20;;
72373;SDS011;60349;64.132;-21.820;2023-02-20T05:20:09;4.45;;;0.20;;
72373;SDS011;60349;64.132;-21.820;2023-02-20T05:22:35;2.33;;;0.25;;
72373;SDS011;60349;64.132;-21.820;2023-02-20T05:25:01;5.25;;;0.40;;
72373;SDS011;60349;64.132;-21.820;2023-02-20T05:27:28;6.80;;;0.17;;
72373;SDS011;60349;64.132;-21.820;2023-02-20T05:29:57;3.92;;;0.40;;
72373;SDS011;60349;64.132;-21.820;2023-02-20T05:32:25;6.10;;;0.10;;
72373;SDS011;60349;64.132;-21.820;2023-02-20T05:34:52;3.92;;;0.10;;
72373;SDS011;60349;64.132;-21.820;2023-02-20T05:37:19;4.60;;;0.10;;
72373;SDS011;60349;64.132;-21.820;2023-02-20T05:39:46;5.05;;;0.20;;
72373;SDS011;60349;64.132;-21.820;2023-02-20T05:42:12;2.28;;;0.10;;
72373;SDS011;60349;64.132;-21.820;2023-02-20T05:44:38;7.32;;;0.75;;
72373;SDS011;60349;64.132;-21.820;2023-02-20T05:47:04;4.50;;;0.30;;
72373;SDS011;60349;64.132;-21.820;2023-02-20T05:49:34;4.88;;;0.20;;
72373;SDS011;60349;64.132;-21.820;2023-02-20T05:52:00;4.88;;;0.22;;
72373;SDS011;60349;64.132;-21.820;2023-02-20T05:54:27;3.70;;;0.20;;
72373;SDS011;60349;64.132;-21.820;2023-02-20T05:56:53;3.45;;;0.10;;
72373;SDS011;60349;64.132;-21.820;2023-02-20T05:59:20;5.60;;;0.40;;
72373;SDS011;60349;64.132;-21.820;2023-02-20T06:01:47;3.90;;;0.10;;
72373;SDS011;60349;64.132;-21.820;2023-02-20T06:04:17;3.85;;;0.10;;
72373;SDS011;60349;64.132;-21.820;2023-02-20T06:06:43;3.15;;;0.17;;
72373;SDS011;60349;64.132;-21.820;2023-02-20T06:09:10;2.75;;;0.10;;
72373;SDS011;60349;64.132;-21.820;2023-02-20T06:11:37;5.57;;;0.20;;
72373;SDS011;60349;64.132;-21.820;2023-02-20T06:14:03;3.53;;;0.10;;
72373;SDS011;60349;64.132;-21.820;2023-02-20T06:16:30;3.15;;;0.15;;
72373;SDS011;60349;64.132;-21.820;2023-02-20T06:18:56;7.20;;;0.20;;
72373;SDS011;60349;64.132;-21.820;2023-02-20T06:21:24;5.47;;;0.10;;
72373;SDS011;60349;64.132;-21.820;2023-02-20T06:23:50;3.45;;;0.10;;
72373;SDS011;60349;64.132;-21.820;2023-02-20T06:26:17;3.45;;;0.17;;
72373;SDS011;60349;64.132;-21.820;2023-02-20T06:28:43;4.97;;;0.10;;
72373;SDS011;60349;64.132;-21.820;2023-02-20T06:31:12;6.30;;;0.20;;
72373;SDS011;60349;64.132;-21.820;2023-02-20T06:33:38;2.92;;;0.15;;
72373;SDS011;60349;64.132;-21.820;2023-02-20T06:36:04;3.85;;;0.10;;
72373;SDS011;60349;64.132;-21.820;2023-02-20T06:38:31;2.42;;;0.10;;
72373;SDS011;60349;64.132;-21.820;2023-02-20T06:40:57;5.93;;;0.10;;
72373;SDS011;60349;64.132;-21.820;2023-02-20T06:43:23;2.30;;;0.17;;
72373;SDS011;60349;64.132;-21.820;2023-02-20T06:45:49;4.07;;;0.20;;
72373;SDS011;60349;64.132;-21.820;2023-02-20T06:48:15;4.13;;;0.10;;
72373;SDS011;60349;64.132;-21.820;2023-02-20T06:50:41;5.93;;;0.10;;
72373;SDS011;60349;64.132;-21.820;2023-02-20T06:53:08;7.05;;;0.20;;
72373;SDS011;60349;64.132;-21.820;2023-02-20T06:55:34;8.38;;;0.20;;
72373;SDS011;60349;64.132;-21.820;2023-02-20T06:58:00;6.13;;;0.20;;
72373;SDS011;60349;64.132;-21.820;2023-02-20T07:00:26;4.57;;;0.10;;
72373;SDS011;60349;64.132;-21.820;2023-02-20T07:02:52;2.60;;;0.10;;
72373;SDS011;60349;64.132;-21.820;2023-02-20T07:05:18;3.88;;;0.20;;
72373;SDS011;60349;64.132;-21.820;2023-02-20T07:07:44;6.90;;;0.30;;
72373;SDS011;60349;64.132;-21.820;2023-02-20T07:10:10;3.80;;;0.20;;
72373;SDS011;60349;64.132;-21.820;2023-02-20T07:12:37;3.97;;;0.10;;
72373;SDS011;60349;64.132;-21.820;2023-02-20T07:15:04;4.45;;;0.10;;
72373;SDS011;60349;64.132;-21.820;2023-02-20T07:17:31;2.05;;;0.10;;
72373;SDS011;60349;64.132;-21.820;2023-02-20T07:19:57;4.10;;;0.10;;
72373;SDS011;60349;64.132;-21.820;2023-02-20T07:22:23;4.10;;;0.20;;
72373;SDS011;60349;64.132;-21.820;2023-02-20T07:24:50;4.03;;;0.17;;
72373;SDS011;60349;64.132;-21.820;2023-02-20T07:27:16;5.65;;;0.15;;
72373;SDS011;60349;64.132;-21.820;2023-02-20T07:29:46;2.30;;;0.10;;
72373;SDS011;60349;64.132;-21.820;2023-02-20T07:32:12;5.80;;;0.10;;
72373;SDS011;60349;64.132;-21.820;2023-02-20T07:34:39;3.65;;;0.52;;
72373;SDS011;60349;64.132;-21.820;2023-02-20T07:37:05;3.95;;;0.10;;
72373;SDS011;60349;64.132;-21.820;2023-02-20T07:39:31;3.55;;;0.17;;
72373;SDS011;60349;64.132;-21.820;2023-02-20T07:41:57;4.65;;;0.22;;
72373;SDS011;60349;64.132;-21.820;2023-02-20T07:44:23;8.68;;;0.85;;
72373;SDS011;60349;64.132;-21.820;2023-02-20T07:46:49;3.97;;;0.10;;
72373;SDS011;60349;64.132;-21.820;2023-02-20T07:49:16;5.90;;;0.10;;
72373;SDS011;60349;64.132;-21.820;2023-02-20T07:51:42;6.20;;;0.10;;
72373;SDS011;60349;64.132;-21.820;2023-02-20T07:54:08;2.22;;;0.10;;
72373;SDS011;60349;64.132;-21.820;2023-02-20T07:56:34;7.95;;;0.45;;
72373;SDS011;60349;64.132;-21.820;2023-02-20T07:59:00;2.17;;;0.10;;
72373;SDS011;60349;64.132;-21.820;2023-02-20T08:01:26;5.20;;;0.30;;
72373;SDS011;60349;64.132;-21.820;2023-02-20T08:03:53;2.30;;;0.10;;
72373;SDS011;60349;64.132;-21.820;2023-02-20T08:06:19;4.90;;;0.10;;
72373;SDS011;60349;64.132;-21.820;2023-02-20T08:08:47;5.53;;;0.20;;
72373;SDS011;60349;64.132;-21.820;2023-02-20T08:11:14;4.82;;;0.13;;
72373;SDS011;60349;64.132;-21.820;2023-02-20T08:13:41;3.85;;;0.10;;
72373;SDS011;60349;64.132;-21.820;2023-02-20T08:16:07;2.13;;;0.10;;
72373;SDS011;60349;64.132;-21.820;2023-02-20T08:18:33;3.67;;;0.10;;
72373;SDS011;60349;64.132;-21.820;2023-02-20T08:20:59;3.83;;;0.10;;
72373;SDS011;60349;64.132;-21.820;2023-02-20T08:23:25;3.78;;;0.13;;
72373;SDS011;60349;64.132;-21.820;2023-02-20T08:25:52;4.30;;;0.10;;
72373;SDS011;60349;64.132;-21.820;2023-02-20T08:28:18;5.57;;;0.13;;
72373;SDS011;60349;64.132;-21.820;2023-02-20T08:30:45;3.33;;;0.17;;
72373;SDS011;60349;64.132;-21.820;2023-02-20T08:33:11;6.20;;;0.10;;
72373;SDS011;60349;64.132;-21.820;2023-02-20T08:35:37;5.03;;;0.25;;
72373;SDS011;60349;64.132;-21.820;2023-02-20T08:38:04;5.97;;;0.20;;
72373;SDS011;60349;64.132;-21.820;2023-02-20T08:40:30;6.25;;;0.10;;
72373;SDS011;60349;64.132;-21.820;2023-02-20T08:42:57;5.15;;;0.20;;
72373;SDS011;60349;64.132;-21.820;2023-02-20T08:45:23;3.13;;;0.20;;
72373;SDS011;60349;64.132;-21.820;2023-02-20T08:47:50;5.32;;;0.20;;
72373;SDS011;60349;64.132;-21.820;2023-02-20T08:50:16;3.97;;;0.52;;
72373;SDS011;60349;64.132;-21.820;2023-02-20T08:52:43;11.93;;;0.15;;
72373;SDS011;60349;64.132;-21.820;2023-02-20T08:55:10;2.70;;;0.17;;
72373;SDS011;60349;64.132;-21.820;2023-02-20T08:57:36;2.75;;;0.10;;
72373;SDS011;60349;64.132;-21.820;2023-02-20T09:00:05;6.32;;;0.30;;
72373;SDS011;60349;64.132;-21.820;2023-02-20T09:02:31;4.18;;;0.13;;
72373;SDS011;60349;64.132;-21.820;2023-02-20T09:04:57;5.63;;;0.10;;
72373;SDS011;60349;64.132;-21.820;2023-02-20T09:07:23;2.72;;;0.30;;
72373;SDS011;60349;64.132;-21.820;2023-02-20T09:09:49;0.80;;;0.10;;
72373;SDS011;60349;64.132;-21.820;2023-02-20T09:12:16;2.22;;;0.10;;
72373;SDS011;60349;64.132;-21.820;2023-02-20T09:14:42;1.85;;;0.10;;
72373;SDS011;60349;64.132;-21.820;2023-02-20T09:17:08;16.48;;;6.20;;
72373;SDS011;60349;64.132;-21.820;2023-02-20T09:19:34;18.70;;;8.20;;
72373;SDS011;60349;64.132;-21.820;2023-02-20T09:22:00;19.77;;;7.32;;
72373;SDS011;60349;64.132;-21.820;2023-02-20T09:24:27;14.25;;;5.28;;
72373;SDS011;60349;64.132;-21.820;2023-02-20T09:27:01;12.02;;;5.53;;
72373;SDS011;60349;64.132;-21.820;2023-02-20T09:29:28;13.02;;;3.53;;
72373;SDS011;60349;64.132;-21.820;2023-02-20T09:31:54;9.68;;;3.03;;
72373;SDS011;60349;64.132;-21.820;2023-02-20T09:34:20;10.52;;;2.83;;
72373;SDS011;60349;64.132;-21.820;2023-02-20T09:36:46;9.05;;;1.77;;
72373;SDS011;60349;64.132;-21.820;2023-02-20T09:39:12;9.95;;;2.33;;
72373;SDS011;60349;64.132;-21.820;2023-02-20T09:41:58;6.32;;;0.90;;
72373;SDS011;60349;64.132;-21.820;2023-02-20T09:44:31;8.63;;;1.17;;
72373;SDS011;60349;64.132;-21.820;2023-02-20T09:47:00;5.82;;;0.60;;
72373;SDS011;60349;64.132;-21.820;2023-02-20T09:49:31;4.43;;;0.40;;
72373;SDS011;60349;64.132;-21.820;2023-02-20T09:51:59;6.22;;;0.73;;
72373;SDS011;60349;64.132;-21.820;2023-02-20T09:54:39;8.48;;;0.40;;
72373;SDS011;60349;64.132;-21.820;2023-02-20T09:57:09;5.18;;;0.60;;
72373;SDS011;60349;64.132;-21.820;2023-02-20T10:00:20;12.70;;;0.60;;
72373;SDS011;60349;64.132;-21.820;2023-02-20T10:02:29;5.72;;;0.20;;
72373;SDS011;60349;64.132;-21.820;2023-02-20T10:04:56;3.17;;;0.15;;
72373;SDS011;60349;64.132;-21.820;2023-02-20T10:09:56;6.93;;;0.30;;
72373;SDS011;60349;64.132;-21.820;2023-02-20T10:17:28;2.30;;;0.45;;
72373;SDS011;60349;64.132;-21.820;2023-02-20T10:19:59;2.53;;;0.20;;
72373;SDS011;60349;64.132;-21.820;2023-02-20T10:35:39;5.45;;;2.05;;
72373;SDS011;60349;64.132;-21.820;2023-02-20T10:38:07;2.25;;;0.10;;
72373;SDS011;60349;64.132;-21.820;2023-02-20T10:43:03;3.58;;;0.05;;
72373;SDS011;60349;64.132;-21.820;2023-02-20T10:47:59;2.30;;;0.10;;
72373;SDS011;60349;64.132;-21.820;2023-02-20T10:50:37;2.55;;;0.10;;
72373;SDS011;60349;64.132;-21.820;2023-02-20T10:55:34;1.90;;;0.10;;
72373;SDS011;60349;64.132;-21.820;2023-02-20T10:58:24;1.70;;;0.10;;
72373;SDS011;60349;64.132;-21.820;2023-02-20T11:00:54;3.92;;;0.10;;
72373;SDS011;60349;64.132;-21.820;2023-02-20T11:03:24;3.60;;;0.10;;
72373;SDS011;60349;64.132;-21.820;2023-02-20T11:05:53;1.17;;;0.20;;
72373;SDS011;60349;64.132;-21.820;2023-02-20T11:08:20;4.40;;;0.10;;
72373;SDS011;60349;64.132;-21.820;2023-02-20T11:10:47;5.38;;;0.10;;
72373;SDS011;60349;64.132;-21.820;2023-02-20T11:13:14;2.60;;;0.10;;
72373;SDS011;60349;64.132;-21.820;2023-02-20T11:15:42;5.00;;;0.10;;
72373;SDS011;60349;64.132;-21.820;2023-02-20T11:18:30;5.63;;;0.15;;
72373;SDS011;60349;64.132;-21.820;2023-02-20T11:20:55;3.75;;;0.32;;
72373;SDS011;60349;64.132;-21.820;2023-02-20T11:23:54;11.40;;;0.35;;
72373;SDS011;60349;64.132;-21.820;2023-02-20T11:28:39;4.05;;;0.30;;
72373;SDS011;60349;64.132;-21.820;2023-02-20T11:31:05;2.70;;;0.10;;
72373;SDS011;60349;64.132;-21.820;2023-02-20T11:33:33;5.15;;;0.20;;
72373;SDS011;60349;64.132;-21.820;2023-02-20T11:38:35;5.32;;;0.10;;
72373;SDS011;60349;64.132;-21.820;2023-02-20T11:41:06;6.22;;;0.10;;
72373;SDS011;60349;64.132;-21.820;2023-02-20T11:43:43;4.90;;;0.20;;
72373;SDS011;60349;64.132;-21.820;2023-02-20T11:46:12;5.25;;;0.15;;
72373;SDS011;60349;64.132;-21.820;2023-02-20T11:48:55;5.35;;;0.10;;
72373;SDS011;60349;64.132;-21.820;2023-02-20T11:51:36;3.88;;;0.10;;
72373;SDS011;60349;64.132;-21.820;2023-02-20T11:54:07;2.60;;;0.10;;
72373;SDS011;60349;64.132;-21.820;2023-02-20T11:56:33;2.42;;;0.10;;
72373;SDS011;60349;64.132;-21.820;2023-02-20T11:59:16;7.78;;;0.43;;
72373;SDS011;60349;64.132;-21.820;2023-02-20T12:01:50;3.28;;;0.10;;
72373;SDS011;60349;64.132;-21.820;2023-02-20T12:04:18;1.80;;;0.10;;
72373;SDS011;60349;64.132;-21.820;2023-02-20T12:06:45;1.75;;;0.10;;
72373;SDS011;60349;64.132;-21.820;2023-02-20T12:09:18;3.33;;;0.10;;
72373;SDS011;60349;64.132;-21.820;2023-02-20T12:11:46;2.42;;;0.10;;
72373;SDS011;60349;64.132;-21.820;2023-02-20T12:14:13;4.65;;;0.20;;
72373;SDS011;60349;64.132;-21.820;2023-02-20T12:22:02;7.47;;;0.17;;
72373;SDS011;60349;64.132;-21.820;2023-02-20T12:24:39;3.53;;;0.10;;
72373;SDS011;60349;64.132;-21.820;2023-02-20T12:30:42;3.10;;;0.10;;
72373;SDS011;60349;64.132;-21.820;2023-02-20T12:37:51;6.15;;;0.10;;
72373;SDS011;60349;64.132;-21.820;2023-02-20T12:43:03;4.78;;;0.10;;
72373;SDS011;60349;64.132;-21.820;2023-02-20T12:48:18;4.40;;;0.40;;
72373;SDS011;60349;64.132;-21.820;2023-02-20T12:55:44;7.85;;;1.50;;
72373;SDS011;60349;64.132;-21.820;2023-02-20T13:00:45;6.38;;;2.03;;
72373;SDS011;60349;64.132;-21.820;2023-02-20T13:03:17;5.22;;;2.08;;
72373;SDS011;60349;64.132;-21.820;2023-02-20T13:05:45;5.82;;;1.58;;
72373;SDS011;60349;64.132;-21.820;2023-02-20T13:10:46;5.03;;;1.17;;
72373;SDS011;60349;64.132;-21.820;2023-02-20T13:13:13;3.85;;;1.15;;
72373;SDS011;60349;64.132;-21.820;2023-02-20T13:15:57;3.20;;;0.40;;
72373;SDS011;60349;64.132;-21.820;2023-02-20T13:18:39;5.38;;;0.40;;
72373;SDS011;60349;64.132;-21.820;2023-02-20T13:21:10;3.97;;;0.40;;
72373;SDS011;60349;64.132;-21.820;2023-02-20T13:23:37;6.80;;;1.05;;
72373;SDS011;60349;64.132;-21.820;2023-02-20T13:28:48;4.55;;;0.30;;
72373;SDS011;60349;64.132;-21.820;2023-02-20T13:33:41;3.15;;;0.22;;
72373;SDS011;60349;64.132;-21.820;2023-02-20T13:36:15;5.05;;;0.20;;
72373;SDS011;60349;64.132;-21.820;2023-02-20T13:38:41;3.53;;;0.30;;
72373;SDS011;60349;64.132;-21.820;2023-02-20T13:41:14;5.57;;;0.20;;
72373;SDS011;60349;64.132;-21.820;2023-02-20T13:43:40;2.47;;;0.20;;
72373;SDS011;60349;64.132;-21.820;2023-02-20T13:58:45;3.03;;;0.22;;
72373;SDS011;60349;64.132;-21.820;2023-02-20T14:01:11;1.63;;;0.10;;
72373;SDS011;60349;64.132;-21.820;2023-02-20T14:03:37;6.30;;;0.17;;
72373;SDS011;60349;64.132;-21.820;2023-02-20T14:06:11;2.85;;;0.10;;
72373;SDS011;60349;64.132;-21.820;2023-02-20T14:08:42;4.72;;;0.20;;
72373;SDS011;60349;64.132;-21.820;2023-02-20T14:13:35;4.25;;;0.17;;
72373;SDS011;60349;64.132;-21.820;2023-02-20T14:16:02;4.03;;;0.20;;
72373;SDS011;60349;64.132;-21.820;2023-02-20T14:18:34;4.43;;;0.45;;
72373;SDS011;60349;64.132;-21.820;2023-02-20T14:21:19;3.50;;;0.20;;
72373;SDS011;60349;64.132;-21.820;2023-02-20T14:23:49;3.63;;;0.20;;
72373;SDS011;60349;64.132;-21.820;2023-02-20T14:26:23;5.57;;;0.17;;
72373;SDS011;60349;64.132;-21.820;2023-02-20T14:28:51;7.60;;;0.50;;
72373;SDS011;60349;64.132;-21.820;2023-02-20T14:31:27;5.85;;;1.08;;
72373;SDS011;60349;64.132;-21.820;2023-02-20T14:33:56;4.30;;;0.20;;
72373;SDS011;60349;64.132;-21.820;2023-02-20T14:41:54;5.47;;;0.28;;
72373;SDS011;60349;64.132;-21.820;2023-02-20T14:44:20;6.60;;;1.27;;
72373;SDS011;60349;64.132;-21.820;2023-02-20T14:46:49;4.05;;;0.90;;
72373;SDS011;60349;64.132;-21.820;2023-02-20T14:49:22;3.90;;;0.10;;
72373;SDS011;60349;64.132;-21.820;2023-02-20T14:51:48;5.05;;;0.20;;
72373;SDS011;60349;64.132;-21.820;2023-02-20T14:54:22;4.05;;;0.30;;
72373;SDS011;60349;64.132;-21.820;2023-02-20T14:56:49;3.95;;;0.10;;
72373;SDS011;60349;64.132;-21.820;2023-02-20T14:59:27;4.05;;;0.20;;
72373;SDS011;60349;64.132;-21.820;2023-02-20T15:01:55;2.97;;;0.63;;
72373;SDS011;60349;64.132;-21.820;2023-02-20T15:04:22;3.92;;;0.20;;
72373;SDS011;60349;64.132;-21.820;2023-02-20T15:06:49;6.10;;;0.15;;
72373;SDS011;60349;64.132;-21.820;2023-02-20T15:09:16;6.20;;;0.30;;
72373;SDS011;60349;64.132;-21.820;2023-02-20T15:11:47;3.38;;;0.10;;
72373;SDS011;60349;64.132;-21.820;2023-02-20T15:14:19;4.07;;;0.13;;
72373;SDS011;60349;64.132;-21.820;2023-02-20T15:16:46;7.57;;;0.20;;
72373;SDS011;60349;64.132;-21.820;2023-02-20T15:19:19;6.05;;;0.10;;
72373;SDS011;60349;64.132;-21.820;2023-02-20T15:21:53;2.53;;;0.10;;
72373;SDS011;60349;64.132;-21.820;2023-02-20T15:26:50;5.28;;;0.30;;
72373;SDS011;60349;64.132;-21.820;2023-02-20T15:29:21;4.82;;;0.40;;
72373;SDS011;60349;64.132;-21.820;2023-02-20T15:34:29;5.40;;;0.95;;
72373;SDS011;60349;64.132;-21.820;2023-02-20T15:36:56;8.88;;;1.75;;
72373;SDS011;60349;64.132;-21.820;2023-02-20T15:39:23;2.83;;;0.20;;
72373;SDS011;60349;64.132;-21.820;2023-02-20T15:41:49;5.68;;;0.20;;
72373;SDS011;60349;64.132;-21.820;2023-02-20T15:44:17;6.43;;;0.40;;
72373;SDS011;60349;64.132;-21.820;2023-02-20T15:46:43;5.80;;;0.10;;
72373;SDS011;60349;64.132;-21.820;2023-02-20T15:49:09;3.80;;;0.47;;
72373;SDS011;60349;64.132;-21.820;2023-02-20T15:51:37;5.22;;;0.10;;
72373;SDS011;60349;64.132;-21.820;2023-02-20T15:54:03;6.57;;;0.20;;
72373;SDS011;60349;64.132;-21.820;2023-02-20T15:56:31;5.38;;;0.22;;
72373;SDS011;60349;64.132;-21.820;2023-02-20T15:59:03;5.90;;;0.20;;
72373;SDS011;60349;64.132;-21.820;2023-02-20T16:01:30;3.70;;;0.20;;
72373;SDS011;60349;64.132;-21.820;2023-02-20T16:03:56;6.38;;;0.22;;
72373;SDS011;60349;64.132;-21.820;2023-02-20T16:06:23;4.20;;;0.10;;
72373;SDS011;60349;64.132;-21.820;2023-02-20T16:08:49;7.53;;;0.38;;
72373;SDS011;60349;64.132;-21.820;2023-02-20T16:11:19;3.67;;;0.10;;
72373;SDS011;60349;64.132;-21.820;2023-02-20T16:13:46;2.63;;;0.10;;
72373;SDS011;60349;64.132;-21.820;2023-02-20T16:16:18;6.40;;;0.30;;
72373;SDS011;60349;64.132;-21.820;2023-02-20T16:18:45;7.13;;;0.28;;
72373;SDS011;60349;64.132;-21.820;2023-02-20T16:21:12;7.93;;;0.75;;
72373;SDS011;60349;64.132;-21.820;2023-02-20T16:23:38;7.35;;;1.95;;
72373;SDS011;60349;64.132;-21.820;2023-02-20T16:26:05;13.05;;;3.65;;
72373;SDS011;60349;64.132;-21.820;2023-02-20T16:28:31;12.60;;;2.42;;
72373;SDS011;60349;64.132;-21.820;2023-02-20T16:30:58;6.75;;;2.60;;
72373;SDS011;60349;64.132;-21.820;2023-02-20T16:33:24;7.60;;;2.85;;
72373;SDS011;60349;64.132;-21.820;2023-02-20T16:35:50;12.43;;;2.40;;